sensor_id;sensor_type;location;lat;lon;timestamp;P1;durP1;ratioP1;P2;durP2;ratioP2
30127;SDS011;16942;53.196;6.592;2023-08-06T00:00:27;20.43;;;13.53;;
30127;SDS011;16942;53.196;6.592;2023-08-06T00:02:54;19.33;;;14.13;;
30127;SDS011;16942;53.196;6.592;2023-08-06T00:05:20;27.47;;;14.57;;
30127;SDS011;16942;53.196;6.592;2023-08-06T00:07:46;17.00;;;11.93;;
30127;SDS011;16942;53.196;6.592;2023-08-06T00:10:12;20.87;;;14.77;;
30127;SDS011;16942;53.196;6.592;2023-08-06T00:12:39;23.87;;;15.73;;
30127;SDS011;16942;53.196;6.592;2023-08-06T00:15:05;19.40;;;14.77;;
30127;SDS011;16942;53.196;6.592;2023-08-06T00:17:31;21.67;;;16.63;;
30127;SDS011;16942;53.196;6.592;2023-08-06T00:19:58;15.83;;;13.03;;
30127;SDS011;16942;53.196;6.592;2023-08-06T00:22:29;16.53;;;11.67;;
30127;SDS011;16942;53.196;6.592;2023-08-06T00:24:55;15.60;;;11.50;;
30127;SDS011;16942;53.196;6.592;2023-08-06T00:27:22;14.73;;;9.57;;
30127;SDS011;16942;53.196;6.592;2023-08-06T00:29:48;12.80;;;8.90;;
30127;SDS011;16942;53.196;6.592;2023-08-06T00:32:14;10.27;;;8.47;;
30127;SDS011;16942;53.196;6.592;2023-08-06T00:34:40;11.47;;;8.40;;
30127;SDS011;16942;53.196;6.592;2023-08-06T00:37:06;12.73;;;9.23;;
30127;SDS011;16942;53.196;6.592;2023-08-06T00:39:32;10.40;;;8.43;;
30127;SDS011;16942;53.196;6.592;2023-08-06T00:41:58;14.77;;;8.53;;
30127;SDS011;16942;53.196;6.592;2023-08-06T00:44:24;12.67;;;9.90;;
30127;SDS011;16942;53.196;6.592;2023-08-06T00:46:50;17.57;;;10.43;;
30127;SDS011;16942;53.196;6.592;2023-08-06T00:49:16;21.03;;;13.53;;
30127;SDS011;16942;53.196;6.592;2023-08-06T00:51:42;19.63;;;15.00;;
30127;SDS011;16942;53.196;6.592;2023-08-06T00:54:09;24.10;;;16.07;;
30127;SDS011;16942;53.196;6.592;2023-08-06T00:56:35;21.57;;;14.50;;
30127;SDS011;16942;53.196;6.592;2023-08-06T00:59:03;20.93;;;16.20;;
30127;SDS011;16942;53.196;6.592;2023-08-06T01:01:30;16.93;;;13.23;;
30127;SDS011;16942;53.196;6.592;2023-08-06T01:03:56;21.57;;;15.63;;
30127;SDS011;16942;53.196;6.592;2023-08-06T01:06:23;20.03;;;14.70;;
30127;SDS011;16942;53.196;6.592;2023-08-06T01:09:01;21.23;;;15.20;;
30127;SDS011;16942;53.196;6.592;2023-08-06T01:14:42;17.27;;;11.67;;
30127;SDS011;16942;53.196;6.592;2023-08-06T01:17:11;16.43;;;10.30;;
30127;SDS011;16942;53.196;6.592;2023-08-06T01:19:38;10.63;;;8.63;;
30127;SDS011;16942;53.196;6.592;2023-08-06T01:22:04;12.17;;;8.90;;
30127;SDS011;16942;53.196;6.592;2023-08-06T01:24:30;10.13;;;7.87;;
30127;SDS011;16942;53.196;6.592;2023-08-06T01:27:03;12.70;;;8.40;;
30127;SDS011;16942;53.196;6.592;2023-08-06T01:29:41;14.30;;;8.63;;
30127;SDS011;16942;53.196;6.592;2023-08-06T01:32:08;11.83;;;8.33;;
30127;SDS011;16942;53.196;6.592;2023-08-06T01:34:36;13.83;;;8.50;;
30127;SDS011;16942;53.196;6.592;2023-08-06T01:37:04;9.80;;;8.37;;
30127;SDS011;16942;53.196;6.592;2023-08-06T01:39:33;11.37;;;8.17;;
30127;SDS011;16942;53.196;6.592;2023-08-06T01:41:59;16.73;;;9.50;;
30127;SDS011;16942;53.196;6.592;2023-08-06T01:44:25;12.33;;;9.37;;
30127;SDS011;16942;53.196;6.592;2023-08-06T01:46:51;14.50;;;9.67;;
30127;SDS011;16942;53.196;6.592;2023-08-06T01:49:17;11.43;;;8.60;;
30127;SDS011;16942;53.196;6.592;2023-08-06T01:51:43;12.93;;;8.73;;
30127;SDS011;16942;53.196;6.592;2023-08-06T01:54:09;13.63;;;10.30;;
30127;SDS011;16942;53.196;6.592;2023-08-06T01:56:35;14.17;;;10.63;;
30127;SDS011;16942;53.196;6.592;2023-08-06T01:59:01;17.43;;;9.97;;
30127;SDS011;16942;53.196;6.592;2023-08-06T02:01:27;14.03;;;9.80;;
30127;SDS011;16942;53.196;6.592;2023-08-06T02:03:53;14.73;;;10.50;;
30127;SDS011;16942;53.196;6.592;2023-08-06T02:06:19;15.27;;;9.67;;
30127;SDS011;16942;53.196;6.592;2023-08-06T02:08:45;11.73;;;9.17;;
30127;SDS011;16942;53.196;6.592;2023-08-06T02:11:11;13.27;;;9.67;;
30127;SDS011;16942;53.196;6.592;2023-08-06T02:13:37;16.13;;;11.20;;
30127;SDS011;16942;53.196;6.592;2023-08-06T02:16:03;17.43;;;13.50;;
30127;SDS011;16942;53.196;6.592;2023-08-06T02:18:29;18.33;;;14.20;;
30127;SDS011;16942;53.196;6.592;2023-08-06T02:20:56;23.17;;;15.27;;
30127;SDS011;16942;53.196;6.592;2023-08-06T02:23:22;19.60;;;13.90;;
30127;SDS011;16942;53.196;6.592;2023-08-06T02:25:48;18.87;;;14.23;;
30127;SDS011;16942;53.196;6.592;2023-08-06T02:28:22;21.90;;;14.80;;
30127;SDS011;16942;53.196;6.592;2023-08-06T02:30:51;18.80;;;15.30;;
30127;SDS011;16942;53.196;6.592;2023-08-06T02:33:17;23.07;;;18.30;;
30127;SDS011;16942;53.196;6.592;2023-08-06T02:35:43;26.93;;;19.90;;
30127;SDS011;16942;53.196;6.592;2023-08-06T02:38:09;24.17;;;17.93;;
30127;SDS011;16942;53.196;6.592;2023-08-06T02:40:35;18.97;;;13.90;;
30127;SDS011;16942;53.196;6.592;2023-08-06T02:43:01;24.13;;;14.50;;
30127;SDS011;16942;53.196;6.592;2023-08-06T02:45:27;17.60;;;13.50;;
30127;SDS011;16942;53.196;6.592;2023-08-06T02:47:53;16.50;;;12.83;;
30127;SDS011;16942;53.196;6.592;2023-08-06T02:50:19;20.27;;;12.87;;
30127;SDS011;16942;53.196;6.592;2023-08-06T02:52:45;15.97;;;12.97;;
30127;SDS011;16942;53.196;6.592;2023-08-06T02:55:11;17.27;;;12.67;;
30127;SDS011;16942;53.196;6.592;2023-08-06T02:57:37;14.70;;;11.43;;
30127;SDS011;16942;53.196;6.592;2023-08-06T03:00:03;16.70;;;12.10;;
30127;SDS011;16942;53.196;6.592;2023-08-06T03:02:29;14.33;;;11.40;;
30127;SDS011;16942;53.196;6.592;2023-08-06T03:04:55;15.10;;;10.87;;
30127;SDS011;16942;53.196;6.592;2023-08-06T03:07:21;27.67;;;14.43;;
30127;SDS011;16942;53.196;6.592;2023-08-06T03:09:47;17.97;;;12.57;;
30127;SDS011;16942;53.196;6.592;2023-08-06T03:12:13;20.07;;;13.13;;
30127;SDS011;16942;53.196;6.592;2023-08-06T03:14:39;16.90;;;12.47;;
30127;SDS011;16942;53.196;6.592;2023-08-06T03:17:06;15.57;;;12.33;;
30127;SDS011;16942;53.196;6.592;2023-08-06T03:19:32;16.47;;;12.50;;
30127;SDS011;16942;53.196;6.592;2023-08-06T03:21:58;17.50;;;12.07;;
30127;SDS011;16942;53.196;6.592;2023-08-06T03:24:24;18.23;;;12.63;;
30127;SDS011;16942;53.196;6.592;2023-08-06T03:26:50;14.70;;;11.47;;
30127;SDS011;16942;53.196;6.592;2023-08-06T03:29:16;15.83;;;11.80;;
30127;SDS011;16942;53.196;6.592;2023-08-06T03:31:42;17.70;;;12.00;;
30127;SDS011;16942;53.196;6.592;2023-08-06T03:34:08;17.87;;;11.63;;
30127;SDS011;16942;53.196;6.592;2023-08-06T03:36:34;14.23;;;10.77;;
30127;SDS011;16942;53.196;6.592;2023-08-06T03:39:00;16.87;;;11.27;;
30127;SDS011;16942;53.196;6.592;2023-08-06T03:41:26;20.13;;;12.03;;
30127;SDS011;16942;53.196;6.592;2023-08-06T03:43:52;16.07;;;11.87;;
30127;SDS011;16942;53.196;6.592;2023-08-06T03:46:18;16.07;;;12.53;;
30127;SDS011;16942;53.196;6.592;2023-08-06T03:48:44;19.33;;;11.60;;
30127;SDS011;16942;53.196;6.592;2023-08-06T03:51:10;17.63;;;12.03;;
30127;SDS011;16942;53.196;6.592;2023-08-06T03:53:36;15.60;;;10.67;;
30127;SDS011;16942;53.196;6.592;2023-08-06T03:56:02;19.33;;;10.83;;
30127;SDS011;16942;53.196;6.592;2023-08-06T03:58:28;18.77;;;11.37;;
30127;SDS011;16942;53.196;6.592;2023-08-06T04:01:01;13.23;;;10.50;;
30127;SDS011;16942;53.196;6.592;2023-08-06T04:03:27;16.70;;;10.63;;
30127;SDS011;16942;53.196;6.592;2023-08-06T04:05:53;13.27;;;10.50;;
30127;SDS011;16942;53.196;6.592;2023-08-06T04:08:20;15.23;;;10.10;;
30127;SDS011;16942;53.196;6.592;2023-08-06T04:10:49;17.57;;;12.23;;
30127;SDS011;16942;53.196;6.592;2023-08-06T04:13:16;13.40;;;10.00;;
30127;SDS011;16942;53.196;6.592;2023-08-06T04:15:42;15.37;;;10.33;;
30127;SDS011;16942;53.196;6.592;2023-08-06T04:18:08;17.20;;;11.03;;
30127;SDS011;16942;53.196;6.592;2023-08-06T04:20:34;11.30;;;10.03;;
30127;SDS011;16942;53.196;6.592;2023-08-06T04:23:05;17.80;;;11.13;;
30127;SDS011;16942;53.196;6.592;2023-08-06T04:25:31;14.27;;;10.37;;
30127;SDS011;16942;53.196;6.592;2023-08-06T04:27:57;15.57;;;11.03;;
30127;SDS011;16942;53.196;6.592;2023-08-06T04:30:23;12.00;;;10.10;;
30127;SDS011;16942;53.196;6.592;2023-08-06T04:32:49;13.57;;;9.80;;
30127;SDS011;16942;53.196;6.592;2023-08-06T04:35:16;15.10;;;10.50;;
30127;SDS011;16942;53.196;6.592;2023-08-06T04:37:42;16.37;;;10.07;;
30127;SDS011;16942;53.196;6.592;2023-08-06T04:40:08;14.00;;;9.80;;
30127;SDS011;16942;53.196;6.592;2023-08-06T04:42:34;16.50;;;10.20;;
30127;SDS011;16942;53.196;6.592;2023-08-06T04:45:01;14.80;;;10.03;;
30127;SDS011;16942;53.196;6.592;2023-08-06T04:47:27;17.17;;;10.57;;
30127;SDS011;16942;53.196;6.592;2023-08-06T04:49:53;13.40;;;10.90;;
30127;SDS011;16942;53.196;6.592;2023-08-06T04:52:19;17.10;;;10.90;;
30127;SDS011;16942;53.196;6.592;2023-08-06T04:54:45;13.03;;;9.97;;
30127;SDS011;16942;53.196;6.592;2023-08-06T04:57:11;21.73;;;10.23;;
30127;SDS011;16942;53.196;6.592;2023-08-06T04:59:38;13.93;;;9.53;;
30127;SDS011;16942;53.196;6.592;2023-08-06T05:02:04;15.03;;;10.33;;
30127;SDS011;16942;53.196;6.592;2023-08-06T05:04:30;13.53;;;9.97;;
30127;SDS011;16942;53.196;6.592;2023-08-06T05:06:57;11.37;;;8.97;;
30127;SDS011;16942;53.196;6.592;2023-08-06T05:09:23;13.27;;;9.40;;
30127;SDS011;16942;53.196;6.592;2023-08-06T05:11:49;23.17;;;10.87;;
30127;SDS011;16942;53.196;6.592;2023-08-06T05:14:15;19.17;;;10.57;;
30127;SDS011;16942;53.196;6.592;2023-08-06T05:16:41;24.33;;;11.30;;
30127;SDS011;16942;53.196;6.592;2023-08-06T05:19:07;16.57;;;9.77;;
30127;SDS011;16942;53.196;6.592;2023-08-06T05:21:33;18.60;;;10.13;;
30127;SDS011;16942;53.196;6.592;2023-08-06T05:23:59;25.50;;;11.27;;
30127;SDS011;16942;53.196;6.592;2023-08-06T05:26:25;14.27;;;9.50;;
30127;SDS011;16942;53.196;6.592;2023-08-06T05:28:51;12.17;;;9.63;;
30127;SDS011;16942;53.196;6.592;2023-08-06T05:31:17;29.33;;;12.30;;
30127;SDS011;16942;53.196;6.592;2023-08-06T05:33:43;27.57;;;12.47;;
30127;SDS011;16942;53.196;6.592;2023-08-06T05:36:09;24.27;;;10.33;;
30127;SDS011;16942;53.196;6.592;2023-08-06T05:38:36;26.03;;;11.33;;
30127;SDS011;16942;53.196;6.592;2023-08-06T05:41:02;23.47;;;10.90;;
30127;SDS011;16942;53.196;6.592;2023-08-06T05:43:28;20.93;;;11.37;;
30127;SDS011;16942;53.196;6.592;2023-08-06T05:45:55;18.47;;;10.50;;
30127;SDS011;16942;53.196;6.592;2023-08-06T05:48:21;19.47;;;10.10;;
30127;SDS011;16942;53.196;6.592;2023-08-06T05:50:49;15.47;;;10.50;;
30127;SDS011;16942;53.196;6.592;2023-08-06T05:53:15;13.67;;;10.73;;
30127;SDS011;16942;53.196;6.592;2023-08-06T05:55:41;17.40;;;12.20;;
30127;SDS011;16942;53.196;6.592;2023-08-06T05:58:07;16.43;;;12.53;;
30127;SDS011;16942;53.196;6.592;2023-08-06T06:00:33;21.03;;;11.07;;
30127;SDS011;16942;53.196;6.592;2023-08-06T06:03:00;20.67;;;11.00;;
30127;SDS011;16942;53.196;6.592;2023-08-06T06:05:27;25.27;;;13.37;;
30127;SDS011;16942;53.196;6.592;2023-08-06T06:07:53;21.43;;;11.63;;
30127;SDS011;16942;53.196;6.592;2023-08-06T06:10:19;15.50;;;9.83;;
30127;SDS011;16942;53.196;6.592;2023-08-06T06:12:45;17.53;;;10.83;;
30127;SDS011;16942;53.196;6.592;2023-08-06T06:15:11;13.93;;;9.27;;
30127;SDS011;16942;53.196;6.592;2023-08-06T06:17:37;13.10;;;9.90;;
30127;SDS011;16942;53.196;6.592;2023-08-06T06:20:03;10.67;;;8.80;;
30127;SDS011;16942;53.196;6.592;2023-08-06T06:22:30;12.10;;;8.43;;
30127;SDS011;16942;53.196;6.592;2023-08-06T06:24:56;12.97;;;9.23;;
30127;SDS011;16942;53.196;6.592;2023-08-06T06:27:22;12.17;;;9.13;;
30127;SDS011;16942;53.196;6.592;2023-08-06T06:29:48;11.90;;;8.20;;
30127;SDS011;16942;53.196;6.592;2023-08-06T06:32:14;10.93;;;9.50;;
30127;SDS011;16942;53.196;6.592;2023-08-06T06:34:40;9.13;;;7.53;;
30127;SDS011;16942;53.196;6.592;2023-08-06T06:37:06;10.07;;;7.37;;
30127;SDS011;16942;53.196;6.592;2023-08-06T06:39:32;12.37;;;8.33;;
30127;SDS011;16942;53.196;6.592;2023-08-06T06:41:58;10.73;;;8.00;;
30127;SDS011;16942;53.196;6.592;2023-08-06T06:44:24;11.13;;;7.43;;
30127;SDS011;16942;53.196;6.592;2023-08-06T06:46:50;11.27;;;8.13;;
30127;SDS011;16942;53.196;6.592;2023-08-06T06:49:16;11.83;;;7.70;;
30127;SDS011;16942;53.196;6.592;2023-08-06T06:51:42;9.23;;;7.90;;
30127;SDS011;16942;53.196;6.592;2023-08-06T06:54:08;9.90;;;6.70;;
30127;SDS011;16942;53.196;6.592;2023-08-06T06:56:34;10.10;;;7.93;;
30127;SDS011;16942;53.196;6.592;2023-08-06T06:59:00;9.57;;;6.90;;
30127;SDS011;16942;53.196;6.592;2023-08-06T07:01:26;8.13;;;7.27;;
30127;SDS011;16942;53.196;6.592;2023-08-06T07:03:52;6.97;;;6.23;;
30127;SDS011;16942;53.196;6.592;2023-08-06T07:06:18;8.23;;;6.23;;
30127;SDS011;16942;53.196;6.592;2023-08-06T07:08:44;9.20;;;7.13;;
30127;SDS011;16942;53.196;6.592;2023-08-06T07:11:10;7.77;;;6.77;;
30127;SDS011;16942;53.196;6.592;2023-08-06T07:13:36;8.03;;;7.23;;
30127;SDS011;16942;53.196;6.592;2023-08-06T07:16:02;7.47;;;6.17;;
30127;SDS011;16942;53.196;6.592;2023-08-06T07:18:29;8.07;;;6.23;;
30127;SDS011;16942;53.196;6.592;2023-08-06T07:20:55;9.50;;;6.50;;
30127;SDS011;16942;53.196;6.592;2023-08-06T07:23:22;7.13;;;6.40;;
30127;SDS011;16942;53.196;6.592;2023-08-06T07:25:48;6.60;;;5.80;;
30127;SDS011;16942;53.196;6.592;2023-08-06T07:28:15;8.17;;;6.60;;
30127;SDS011;16942;53.196;6.592;2023-08-06T07:30:41;7.77;;;6.07;;
30127;SDS011;16942;53.196;6.592;2023-08-06T07:33:08;6.23;;;5.63;;
30127;SDS011;16942;53.196;6.592;2023-08-06T07:35:34;6.43;;;5.80;;
30127;SDS011;16942;53.196;6.592;2023-08-06T07:38:00;8.37;;;6.33;;
30127;SDS011;16942;53.196;6.592;2023-08-06T07:40:26;8.00;;;6.87;;
30127;SDS011;16942;53.196;6.592;2023-08-06T07:42:52;8.57;;;6.13;;
30127;SDS011;16942;53.196;6.592;2023-08-06T07:45:18;11.93;;;7.20;;
30127;SDS011;16942;53.196;6.592;2023-08-06T07:47:44;6.17;;;5.43;;
30127;SDS011;16942;53.196;6.592;2023-08-06T07:50:10;6.23;;;5.63;;
30127;SDS011;16942;53.196;6.592;2023-08-06T07:52:36;6.63;;;5.67;;
30127;SDS011;16942;53.196;6.592;2023-08-06T07:55:02;5.83;;;5.23;;
30127;SDS011;16942;53.196;6.592;2023-08-06T07:57:33;5.87;;;5.30;;
30127;SDS011;16942;53.196;6.592;2023-08-06T07:59:59;5.50;;;5.00;;
30127;SDS011;16942;53.196;6.592;2023-08-06T08:02:25;5.93;;;5.33;;
30127;SDS011;16942;53.196;6.592;2023-08-06T08:04:52;5.87;;;4.77;;
30127;SDS011;16942;53.196;6.592;2023-08-06T08:07:18;5.90;;;5.30;;
30127;SDS011;16942;53.196;6.592;2023-08-06T08:09:44;11.23;;;5.73;;
30127;SDS011;16942;53.196;6.592;2023-08-06T08:12:10;6.27;;;5.17;;
30127;SDS011;16942;53.196;6.592;2023-08-06T08:14:36;6.33;;;5.63;;
30127;SDS011;16942;53.196;6.592;2023-08-06T08:17:03;6.73;;;5.63;;
30127;SDS011;16942;53.196;6.592;2023-08-06T08:19:29;5.43;;;4.93;;
30127;SDS011;16942;53.196;6.592;2023-08-06T08:21:55;9.23;;;5.57;;
30127;SDS011;16942;53.196;6.592;2023-08-06T08:24:22;6.33;;;5.50;;
30127;SDS011;16942;53.196;6.592;2023-08-06T08:26:49;8.13;;;5.90;;
30127;SDS011;16942;53.196;6.592;2023-08-06T08:29:15;8.10;;;5.17;;
30127;SDS011;16942;53.196;6.592;2023-08-06T08:31:41;6.17;;;5.57;;
30127;SDS011;16942;53.196;6.592;2023-08-06T08:34:08;8.60;;;5.37;;
30127;SDS011;16942;53.196;6.592;2023-08-06T08:36:34;5.47;;;4.97;;
30127;SDS011;16942;53.196;6.592;2023-08-06T08:39:00;5.67;;;4.83;;
30127;SDS011;16942;53.196;6.592;2023-08-06T08:41:29;5.47;;;4.97;;
30127;SDS011;16942;53.196;6.592;2023-08-06T08:43:56;5.20;;;4.70;;
30127;SDS011;16942;53.196;6.592;2023-08-06T08:46:24;4.70;;;4.03;;
30127;SDS011;16942;53.196;6.592;2023-08-06T08:48:51;5.50;;;4.00;;
30127;SDS011;16942;53.196;6.592;2023-08-06T08:51:17;5.97;;;3.57;;
30127;SDS011;16942;53.196;6.592;2023-08-06T08:53:44;7.00;;;4.00;;
30127;SDS011;16942;53.196;6.592;2023-08-06T08:56:10;5.37;;;3.70;;
30127;SDS011;16942;53.196;6.592;2023-08-06T08:58:36;4.33;;;3.40;;
30127;SDS011;16942;53.196;6.592;2023-08-06T09:01:02;4.73;;;3.37;;
30127;SDS011;16942;53.196;6.592;2023-08-06T09:03:29;4.33;;;3.23;;
30127;SDS011;16942;53.196;6.592;2023-08-06T09:05:55;6.20;;;3.70;;
30127;SDS011;16942;53.196;6.592;2023-08-06T09:08:24;4.10;;;3.70;;
30127;SDS011;16942;53.196;6.592;2023-08-06T09:10:53;8.52;;;3.70;;
30127;SDS011;16942;53.196;6.592;2023-08-06T09:13:19;4.50;;;3.35;;
30127;SDS011;16942;53.196;6.592;2023-08-06T09:15:46;4.28;;;3.00;;
30127;SDS011;16942;53.196;6.592;2023-08-06T09:18:12;3.38;;;2.83;;
30127;SDS011;16942;53.196;6.592;2023-08-06T09:20:39;5.22;;;3.28;;
30127;SDS011;16942;53.196;6.592;2023-08-06T09:23:08;2.65;;;2.45;;
30127;SDS011;16942;53.196;6.592;2023-08-06T09:25:36;5.20;;;2.65;;
30127;SDS011;16942;53.196;6.592;2023-08-06T09:28:03;4.18;;;2.35;;
30127;SDS011;16942;53.196;6.592;2023-08-06T09:30:33;2.70;;;2.50;;
30127;SDS011;16942;53.196;6.592;2023-08-06T09:32:59;4.40;;;2.35;;
30127;SDS011;16942;53.196;6.592;2023-08-06T09:35:29;4.43;;;2.60;;
30127;SDS011;16942;53.196;6.592;2023-08-06T09:37:56;3.03;;;2.50;;
30127;SDS011;16942;53.196;6.592;2023-08-06T09:40:32;4.20;;;2.03;;
30127;SDS011;16942;53.196;6.592;2023-08-06T09:42:58;2.50;;;2.17;;
30127;SDS011;16942;53.196;6.592;2023-08-06T09:45:37;4.78;;;2.05;;
30127;SDS011;16942;53.196;6.592;2023-08-06T09:48:04;4.68;;;1.73;;
30127;SDS011;16942;53.196;6.592;2023-08-06T09:50:30;2.15;;;1.95;;
30127;SDS011;16942;53.196;6.592;2023-08-06T09:52:57;3.83;;;2.13;;
30127;SDS011;16942;53.196;6.592;2023-08-06T09:55:24;2.95;;;2.22;;
30127;SDS011;16942;53.196;6.592;2023-08-06T09:57:51;2.40;;;1.98;;
30127;SDS011;16942;53.196;6.592;2023-08-06T10:00:17;3.55;;;2.25;;
30127;SDS011;16942;53.196;6.592;2023-08-06T10:02:43;2.30;;;2.10;;
30127;SDS011;16942;53.196;6.592;2023-08-06T10:05:10;3.97;;;2.13;;
30127;SDS011;16942;53.196;6.592;2023-08-06T10:07:37;2.67;;;2.05;;
30127;SDS011;16942;53.196;6.592;2023-08-06T10:10:06;2.38;;;1.80;;
30127;SDS011;16942;53.196;6.592;2023-08-06T10:12:34;2.03;;;1.85;;
30127;SDS011;16942;53.196;6.592;2023-08-06T10:15:01;2.30;;;1.98;;
30127;SDS011;16942;53.196;6.592;2023-08-06T10:17:28;2.28;;;1.75;;
30127;SDS011;16942;53.196;6.592;2023-08-06T10:19:56;2.95;;;2.10;;
30127;SDS011;16942;53.196;6.592;2023-08-06T10:22:23;3.40;;;1.90;;
30127;SDS011;16942;53.196;6.592;2023-08-06T10:24:53;4.57;;;1.70;;
30127;SDS011;16942;53.196;6.592;2023-08-06T10:27:41;2.63;;;2.40;;
30127;SDS011;16942;53.196;6.592;2023-08-06T10:32:51;2.08;;;1.70;;
30127;SDS011;16942;53.196;6.592;2023-08-06T10:35:31;2.35;;;1.67;;
30127;SDS011;16942;53.196;6.592;2023-08-06T10:38:19;2.25;;;1.80;;
30127;SDS011;16942;53.196;6.592;2023-08-06T10:43:34;2.95;;;1.95;;
30127;SDS011;16942;53.196;6.592;2023-08-06T10:46:03;7.53;;;2.70;;
30127;SDS011;16942;53.196;6.592;2023-08-06T10:50:56;4.82;;;2.13;;
30127;SDS011;16942;53.196;6.592;2023-08-06T10:53:22;2.83;;;2.17;;
30127;SDS011;16942;53.196;6.592;2023-08-06T10:55:48;2.88;;;2.25;;
30127;SDS011;16942;53.196;6.592;2023-08-06T10:58:15;5.53;;;2.67;;
30127;SDS011;16942;53.196;6.592;2023-08-06T11:00:41;3.30;;;1.95;;
30127;SDS011;16942;53.196;6.592;2023-08-06T11:03:08;2.47;;;2.17;;
30127;SDS011;16942;53.196;6.592;2023-08-06T11:05:34;3.63;;;2.13;;
30127;SDS011;16942;53.196;6.592;2023-08-06T11:08:00;3.40;;;2.05;;
30127;SDS011;16942;53.196;6.592;2023-08-06T11:10:26;6.40;;;3.58;;
30127;SDS011;16942;53.196;6.592;2023-08-06T11:12:52;3.08;;;2.28;;
30127;SDS011;16942;53.196;6.592;2023-08-06T11:15:19;2.22;;;2.05;;
30127;SDS011;16942;53.196;6.592;2023-08-06T11:17:46;2.97;;;1.63;;
30127;SDS011;16942;53.196;6.592;2023-08-06T11:20:12;1.80;;;1.70;;
30127;SDS011;16942;53.196;6.592;2023-08-06T11:22:38;5.45;;;2.20;;
30127;SDS011;16942;53.196;6.592;2023-08-06T11:25:05;2.70;;;2.00;;
30127;SDS011;16942;53.196;6.592;2023-08-06T11:27:32;2.90;;;1.88;;
30127;SDS011;16942;53.196;6.592;2023-08-06T11:29:58;2.00;;;1.70;;
30127;SDS011;16942;53.196;6.592;2023-08-06T11:32:24;2.17;;;1.70;;
30127;SDS011;16942;53.196;6.592;2023-08-06T11:34:52;4.57;;;1.90;;
30127;SDS011;16942;53.196;6.592;2023-08-06T11:37:23;2.03;;;1.75;;
30127;SDS011;16942;53.196;6.592;2023-08-06T11:39:50;2.75;;;1.83;;
30127;SDS011;16942;53.196;6.592;2023-08-06T11:42:16;2.20;;;2.00;;
30127;SDS011;16942;53.196;6.592;2023-08-06T11:44:42;4.47;;;2.65;;
30127;SDS011;16942;53.196;6.592;2023-08-06T11:47:15;1.65;;;1.55;;
30127;SDS011;16942;53.196;6.592;2023-08-06T11:49:48;1.98;;;1.80;;
30127;SDS011;16942;53.196;6.592;2023-08-06T11:54:41;1.52;;;1.42;;
30127;SDS011;16942;53.196;6.592;2023-08-06T11:57:07;2.53;;;1.98;;
30127;SDS011;16942;53.196;6.592;2023-08-06T11:59:33;2.55;;;2.13;;
30127;SDS011;16942;53.196;6.592;2023-08-06T12:02:01;2.10;;;1.90;;
30127;SDS011;16942;53.196;6.592;2023-08-06T12:04:27;2.17;;;1.90;;
30127;SDS011;16942;53.196;6.592;2023-08-06T12:06:53;2.83;;;2.03;;
30127;SDS011;16942;53.196;6.592;2023-08-06T12:09:19;3.35;;;1.90;;
30127;SDS011;16942;53.196;6.592;2023-08-06T12:11:45;3.13;;;2.20;;
30127;SDS011;16942;53.196;6.592;2023-08-06T12:14:11;1.90;;;1.70;;
30127;SDS011;16942;53.196;6.592;2023-08-06T12:16:37;2.35;;;1.95;;
30127;SDS011;16942;53.196;6.592;2023-08-06T12:19:03;4.93;;;2.35;;
30127;SDS011;16942;53.196;6.592;2023-08-06T12:21:29;2.05;;;1.85;;
30127;SDS011;16942;53.196;6.592;2023-08-06T12:23:55;2.30;;;1.80;;
30127;SDS011;16942;53.196;6.592;2023-08-06T12:26:21;1.83;;;1.73;;
30127;SDS011;16942;53.196;6.592;2023-08-06T12:28:47;2.85;;;1.70;;
30127;SDS011;16942;53.196;6.592;2023-08-06T12:31:14;2.08;;;1.88;;
30127;SDS011;16942;53.196;6.592;2023-08-06T12:33:40;3.05;;;2.10;;
30127;SDS011;16942;53.196;6.592;2023-08-06T12:36:06;2.30;;;2.10;;
30127;SDS011;16942;53.196;6.592;2023-08-06T12:38:32;2.58;;;1.88;;
30127;SDS011;16942;53.196;6.592;2023-08-06T12:40:58;1.95;;;1.75;;
30127;SDS011;16942;53.196;6.592;2023-08-06T12:43:24;2.17;;;1.98;;
30127;SDS011;16942;53.196;6.592;2023-08-06T12:45:50;2.42;;;1.90;;
30127;SDS011;16942;53.196;6.592;2023-08-06T12:48:16;3.28;;;2.00;;
30127;SDS011;16942;53.196;6.592;2023-08-06T12:50:44;2.67;;;1.90;;
30127;SDS011;16942;53.196;6.592;2023-08-06T12:53:10;3.80;;;2.20;;
30127;SDS011;16942;53.196;6.592;2023-08-06T12:55:36;2.13;;;1.80;;
30127;SDS011;16942;53.196;6.592;2023-08-06T12:58:02;2.65;;;2.00;;
30127;SDS011;16942;53.196;6.592;2023-08-06T13:00:28;3.35;;;1.73;;
30127;SDS011;16942;53.196;6.592;2023-08-06T13:02:54;4.40;;;2.00;;
30127;SDS011;16942;53.196;6.592;2023-08-06T13:05:20;1.50;;;1.40;;
30127;SDS011;16942;53.196;6.592;2023-08-06T13:07:46;2.15;;;1.63;;
30127;SDS011;16942;53.196;6.592;2023-08-06T13:10:12;2.50;;;1.63;;
30127;SDS011;16942;53.196;6.592;2023-08-06T13:12:38;3.60;;;1.70;;
30127;SDS011;16942;53.196;6.592;2023-08-06T13:15:04;1.63;;;1.52;;
30127;SDS011;16942;53.196;6.592;2023-08-06T13:17:31;2.00;;;1.50;;
30127;SDS011;16942;53.196;6.592;2023-08-06T13:19:57;2.33;;;1.92;;
30127;SDS011;16942;53.196;6.592;2023-08-06T13:22:23;3.05;;;1.70;;
30127;SDS011;16942;53.196;6.592;2023-08-06T13:24:49;1.92;;;1.83;;
30127;SDS011;16942;53.196;6.592;2023-08-06T13:27:15;2.85;;;2.13;;
30127;SDS011;16942;53.196;6.592;2023-08-06T13:29:41;2.58;;;1.88;;
30127;SDS011;16942;53.196;6.592;2023-08-06T13:32:07;2.00;;;1.60;;
30127;SDS011;16942;53.196;6.592;2023-08-06T13:34:33;1.95;;;1.60;;
30127;SDS011;16942;53.196;6.592;2023-08-06T13:36:59;1.77;;;1.67;;
30127;SDS011;16942;53.196;6.592;2023-08-06T13:39:25;2.40;;;1.60;;
30127;SDS011;16942;53.196;6.592;2023-08-06T13:41:51;1.88;;;1.77;;
30127;SDS011;16942;53.196;6.592;2023-08-06T13:44:17;2.22;;;1.88;;
30127;SDS011;16942;53.196;6.592;2023-08-06T13:46:43;1.83;;;1.73;;
30127;SDS011;16942;53.196;6.592;2023-08-06T13:49:09;2.05;;;1.85;;
30127;SDS011;16942;53.196;6.592;2023-08-06T13:51:35;2.38;;;1.90;;
30127;SDS011;16942;53.196;6.592;2023-08-06T13:54:01;1.98;;;1.83;;
30127;SDS011;16942;53.196;6.592;2023-08-06T13:56:27;1.83;;;1.70;;
30127;SDS011;16942;53.196;6.592;2023-08-06T13:58:54;2.00;;;1.90;;
30127;SDS011;16942;53.196;6.592;2023-08-06T14:01:20;2.10;;;1.70;;
30127;SDS011;16942;53.196;6.592;2023-08-06T14:03:47;2.45;;;1.90;;
30127;SDS011;16942;53.196;6.592;2023-08-06T14:06:13;1.92;;;1.83;;
30127;SDS011;16942;53.196;6.592;2023-08-06T14:08:39;1.98;;;1.77;;
30127;SDS011;16942;53.196;6.592;2023-08-06T14:11:05;1.70;;;1.60;;
30127;SDS011;16942;53.196;6.592;2023-08-06T14:13:32;1.95;;;1.83;;
30127;SDS011;16942;53.196;6.592;2023-08-06T14:15:57;1.83;;;1.60;;
30127;SDS011;16942;53.196;6.592;2023-08-06T14:18:24;1.70;;;1.60;;
30127;SDS011;16942;53.196;6.592;2023-08-06T14:20:50;1.67;;;1.58;;
30127;SDS011;16942;53.196;6.592;2023-08-06T14:23:16;1.80;;;1.70;;
30127;SDS011;16942;53.196;6.592;2023-08-06T14:25:42;1.85;;;1.63;;
30127;SDS011;16942;53.196;6.592;2023-08-06T14:28:08;1.83;;;1.73;;
30127;SDS011;16942;53.196;6.592;2023-08-06T14:30:37;2.10;;;1.60;;
30127;SDS011;16942;53.196;6.592;2023-08-06T14:33:03;2.17;;;1.90;;
30127;SDS011;16942;53.196;6.592;2023-08-06T14:35:29;1.60;;;1.48;;
30127;SDS011;16942;53.196;6.592;2023-08-06T14:37:55;1.60;;;1.50;;
30127;SDS011;16942;53.196;6.592;2023-08-06T14:40:21;1.83;;;1.73;;
30127;SDS011;16942;53.196;6.592;2023-08-06T14:42:47;1.88;;;1.77;;
30127;SDS011;16942;53.196;6.592;2023-08-06T14:45:13;1.60;;;1.50;;
30127;SDS011;16942;53.196;6.592;2023-08-06T14:47:39;2.15;;;1.85;;